createdAt,value
2023-05-03T00:00:32.524Z,90.94
2023-05-03T00:01:32.554Z,93.56
2023-05-03T00:02:32.738Z,92.06
2023-05-03T00:03:32.617Z,93.91
2023-05-03T00:04:32.693Z,93.01
2023-05-03T00:05:32.770Z,91.92
2023-05-03T00:06:32.862Z,92.40
2023-05-03T00:07:32.855Z,92.86
2023-05-03T00:08:32.889Z,91.01
2023-05-03T00:09:33.093Z,89.56
2023-05-03T00:10:33.307Z,91.13
2023-05-03T00:11:33.181Z,89.86
2023-05-03T00:12:33.014Z,90.23
2023-05-03T00:13:33.046Z,91.61
2023-05-03T00:14:33.078Z,90.88
2023-05-03T00:15:33.121Z,91.91
2023-05-03T00:16:33.192Z,90.03
2023-05-03T00:17:33.241Z,92.10
2023-05-03T00:18:33.289Z,91.11
2023-05-03T00:19:33.345Z,91.19
2023-05-03T00:20:33.407Z,91.47
2023-05-03T00:21:33.408Z,92.47
2023-05-03T00:22:33.467Z,92.43
2023-05-03T00:23:33.493Z,92.46
2023-05-03T00:24:33.580Z,91.15
2023-05-03T00:25:33.620Z,90.18
2023-05-03T00:26:33.650Z,90.64
2023-05-03T00:27:33.696Z,91.88
2023-05-03T00:28:33.770Z,90.65
2023-05-03T00:29:33.827Z,92.62
2023-05-03T00:30:33.881Z,92.38
2023-05-03T00:31:33.952Z,91.79
2023-05-03T00:32:34.019Z,90.12
2023-05-03T00:33:34.011Z,91.75
2023-05-03T00:34:34.067Z,90.53
2023-05-03T00:35:34.150Z,91.15
2023-05-03T00:36:35.794Z,91.62
2023-05-03T00:37:34.159Z,90.79
2023-05-03T00:38:34.149Z,92.87
2023-05-03T00:39:34.168Z,90.54
2023-05-03T00:40:34.143Z,90.37
2023-05-03T00:41:34.136Z,90.09
2023-05-03T00:42:34.109Z,92.80
2023-05-03T00:43:34.122Z,90.29
2023-05-03T00:44:34.118Z,91.87
2023-05-03T00:45:34.193Z,90.19
2023-05-03T00:46:34.138Z,90.90
2023-05-03T00:47:34.129Z,90.56
2023-05-03T00:48:34.083Z,91.85
2023-05-03T00:49:34.077Z,90.19
2023-05-03T00:50:34.107Z,89.29
2023-05-03T00:51:34.104Z,91.28
2023-05-03T00:52:34.088Z,91.08
2023-05-03T00:53:34.036Z,91.38
2023-05-03T00:54:34.060Z,91.73
2023-05-03T00:55:34.056Z,91.70
2023-05-03T00:56:47.888Z,89.70
2023-05-03T00:57:35.029Z,89.91
2023-05-03T00:58:34.015Z,90.42
2023-05-03T00:59:34.054Z,91.08
2023-05-03T01:00:34.045Z,90.80
2023-05-03T01:01:34.065Z,91.31
2023-05-03T01:02:34.081Z,91.37
2023-05-03T01:03:34.076Z,92.40
2023-05-03T01:04:34.018Z,90.58
2023-05-03T01:05:33.976Z,90.80
2023-05-03T01:06:34.040Z,91.49
2023-05-03T01:07:33.976Z,90.02
2023-05-03T01:08:34.043Z,91.78
2023-05-03T01:09:34.073Z,89.91
2023-05-03T01:10:34.248Z,89.35
2023-05-03T01:11:34.197Z,89.53
2023-05-03T01:12:34.218Z,89.29
2023-05-03T01:13:34.297Z,88.82
2023-05-03T01:14:34.356Z,90.62
2023-05-03T01:15:34.402Z,89.98
2023-05-03T01:16:34.519Z,91.45
2023-05-03T01:17:34.532Z,91.34
2023-05-03T01:18:34.523Z,89.38
2023-05-03T01:19:34.609Z,90.19
2023-05-03T01:20:34.644Z,88.94
2023-05-03T01:21:34.701Z,89.24
2023-05-03T01:22:34.753Z,90.18
2023-05-03T01:23:34.837Z,89.91
2023-05-03T01:24:34.881Z,89.76
2023-05-03T01:25:34.926Z,90.45
2023-05-03T01:26:35.033Z,89.92
2023-05-03T01:27:35.010Z,88.54
2023-05-03T01:28:35.095Z,89.84
2023-05-03T01:29:35.161Z,90.26
2023-05-03T01:30:35.210Z,89.28
2023-05-03T01:31:35.307Z,90.25
2023-05-03T01:32:35.426Z,91.79
2023-05-03T01:33:35.356Z,89.62
2023-05-03T01:34:35.415Z,90.48
2023-05-03T01:35:35.752Z,89.62
2023-05-03T01:36:35.534Z,90.87
2023-05-03T01:37:35.568Z,89.04
2023-05-03T01:38:35.602Z,89.69
2023-05-03T01:39:35.667Z,88.60
2023-05-03T01:40:35.734Z,88.98
2023-05-03T01:41:35.804Z,91.15
2023-05-03T01:42:35.814Z,90.52
2023-05-03T01:43:35.862Z,88.05
2023-05-03T01:44:35.942Z,90.32
2023-05-03T01:45:36.037Z,88.60
2023-05-03T01:46:36.094Z,89.85
2023-05-03T01:47:36.120Z,90.85
2023-05-03T01:48:36.165Z,89.89
2023-05-03T01:49:36.230Z,90.13
2023-05-03T01:50:36.285Z,89.34
2023-05-03T01:51:36.348Z,90.15
2023-05-03T01:52:36.385Z,89.48
2023-05-03T01:53:36.451Z,88.75
2023-05-03T01:54:36.503Z,88.14
2023-05-03T01:55:36.563Z,90.29
2023-05-03T01:56:36.607Z,88.20
2023-05-03T01:57:36.645Z,89.50
2023-05-03T01:58:36.727Z,88.80
2023-05-03T01:59:36.770Z,91.32
2023-05-03T02:00:37.277Z,90.40
2023-05-03T02:01:36.890Z,88.56
2023-05-03T02:02:36.928Z,89.22
2023-05-03T02:03:36.961Z,89.24
2023-05-03T02:04:37.095Z,87.78
2023-05-03T02:05:37.057Z,88.82
2023-05-03T02:06:37.146Z,88.60
2023-05-03T02:07:37.162Z,88.35
2023-05-03T02:08:37.200Z,88.57
2023-05-03T02:09:37.292Z,88.84
2023-05-03T02:10:37.344Z,88.68
2023-05-03T02:11:37.396Z,87.58
2023-05-03T02:12:37.428Z,89.15
2023-05-03T02:13:37.473Z,89.55
2023-05-03T02:14:37.550Z,88.49
2023-05-03T02:15:37.580Z,87.45
2023-05-03T02:16:37.772Z,88.72
2023-05-03T02:17:37.750Z,87.57
2023-05-03T02:18:37.762Z,87.44
2023-05-03T02:19:37.802Z,90.62
2023-05-03T02:20:37.861Z,88.20
2023-05-03T02:21:38.289Z,88.52
2023-05-03T02:22:37.946Z,88.25
2023-05-03T02:23:37.991Z,89.02
2023-05-03T02:24:38.035Z,87.75
2023-05-03T02:25:38.111Z,88.31
2023-05-03T02:26:38.240Z,89.51
2023-05-03T02:27:38.236Z,89.14
2023-05-03T02:28:38.250Z,87.64
2023-05-03T02:29:38.284Z,87.65
2023-05-03T02:30:38.430Z,88.13
2023-05-03T02:31:38.762Z,90.98
2023-05-03T02:32:38.482Z,88.03
2023-05-03T02:33:38.542Z,88.51
2023-05-03T02:34:38.553Z,89.41
2023-05-03T02:35:38.617Z,88.70
2023-05-03T02:36:38.768Z,89.66
2023-05-03T02:37:38.747Z,88.13
2023-05-03T02:38:38.767Z,89.74
2023-05-03T02:39:38.811Z,89.46
2023-05-03T02:40:38.891Z,88.56
2023-05-03T02:41:38.910Z,86.95
2023-05-03T02:42:38.998Z,88.42
2023-05-03T02:43:39.030Z,88.92
2023-05-03T02:44:39.095Z,89.78
2023-05-03T02:45:39.137Z,89.17
2023-05-03T02:46:39.246Z,89.78
2023-05-03T02:47:39.246Z,89.10
2023-05-03T02:48:39.280Z,87.12
2023-05-03T02:49:39.333Z,88.68
2023-05-03T02:50:39.383Z,87.83
2023-05-03T02:51:39.454Z,88.62
2023-05-03T02:52:39.466Z,88.35
2023-05-03T02:53:39.549Z,85.83
2023-05-03T02:54:39.588Z,88.39
2023-05-03T02:55:39.644Z,87.10
2023-05-03T02:56:39.722Z,87.59
2023-05-03T02:57:40.440Z,88.70
2023-05-03T02:58:39.813Z,88.33
2023-05-03T02:59:39.856Z,86.88
2023-05-03T03:00:39.922Z,88.96
2023-05-03T03:01:40.054Z,87.74
2023-05-03T03:02:40.171Z,87.97
2023-05-03T03:03:40.100Z,88.55
2023-05-03T03:04:40.752Z,86.79
2023-05-03T03:05:40.192Z,89.19
2023-05-03T03:06:40.332Z,87.14
2023-05-03T03:07:40.308Z,87.71
2023-05-03T03:08:40.309Z,88.37
2023-05-03T03:09:40.350Z,88.31
2023-05-03T03:10:40.464Z,89.57
2023-05-03T03:11:40.470Z,88.25
2023-05-03T03:12:40.533Z,88.31
2023-05-03T03:13:40.587Z,86.69
2023-05-03T03:14:40.640Z,86.88
2023-05-03T03:15:40.695Z,87.05
2023-05-03T03:16:40.807Z,85.79
2023-05-03T03:17:40.856Z,87.71
2023-05-03T03:18:40.840Z,85.73
2023-05-03T03:19:40.868Z,87.48
2023-05-03T03:20:40.920Z,84.46
2023-05-03T03:21:41.273Z,86.83
2023-05-03T03:22:41.072Z,86.09
2023-05-03T03:23:41.091Z,85.39
2023-05-03T03:24:41.153Z,85.09
2023-05-03T03:25:41.220Z,85.39
2023-05-03T03:26:41.264Z,84.92
2023-05-03T03:27:41.355Z,84.79
2023-05-03T03:28:41.384Z,85.17
2023-05-03T03:29:41.448Z,85.45
2023-05-03T03:30:41.488Z,85.19
2023-05-03T03:31:41.615Z,86.45
2023-05-03T03:32:41.621Z,85.17
2023-05-03T03:33:41.675Z,85.73
2023-05-03T03:34:41.675Z,83.34
2023-05-03T03:35:41.778Z,86.34
2023-05-03T03:36:41.825Z,85.16
2023-05-03T03:37:41.859Z,84.64
2023-05-03T03:38:41.887Z,82.01
2023-05-03T03:39:41.981Z,85.18
2023-05-03T03:40:42.027Z,84.56
2023-05-03T03:41:42.062Z,84.48
2023-05-03T03:42:42.073Z,84.45
2023-05-03T03:43:42.121Z,85.02
2023-05-03T03:44:42.189Z,83.29
2023-05-03T03:45:42.213Z,82.71
2023-05-03T03:46:42.326Z,84.87
2023-05-03T03:47:42.354Z,83.65
2023-05-03T03:48:42.370Z,84.89
2023-05-03T03:49:42.453Z,83.48
2023-05-03T03:50:42.489Z,83.87
2023-05-03T03:51:42.751Z,84.41
2023-05-03T03:52:42.604Z,83.21
2023-05-03T03:53:42.678Z,83.07
2023-05-03T03:54:42.724Z,85.33
2023-05-03T03:55:42.744Z,82.09
2023-05-03T03:56:42.810Z,83.95
2023-05-03T03:57:42.872Z,83.39
2023-05-03T03:58:42.909Z,81.79
2023-05-03T03:59:42.952Z,81.59
2023-05-03T04:00:43.006Z,82.08
2023-05-03T04:01:43.099Z,82.60
2023-05-03T04:02:43.195Z,82.52
2023-05-03T04:03:43.253Z,81.62
2023-05-03T04:04:43.228Z,81.90
2023-05-03T04:05:43.278Z,80.15
2023-05-03T04:06:43.374Z,81.59
2023-05-03T04:07:43.369Z,80.54
2023-05-03T04:08:43.454Z,82.96
2023-05-03T04:09:43.458Z,80.95
2023-05-03T04:10:43.550Z,81.96
2023-05-03T04:11:43.590Z,78.72
2023-05-03T04:12:43.659Z,82.88
2023-05-03T04:13:43.669Z,81.35
2023-05-03T04:14:43.721Z,80.55
2023-05-03T04:15:43.754Z,81.01
2023-05-03T04:16:43.839Z,79.96
2023-05-03T04:17:43.928Z,81.51
2023-05-03T04:18:43.902Z,83.34
2023-05-03T04:19:43.947Z,80.49
2023-05-03T04:20:43.983Z,81.95
2023-05-03T04:21:44.030Z,79.49
2023-05-03T04:22:44.100Z,79.99
2023-05-03T04:23:44.099Z,79.71
2023-05-03T04:24:44.151Z,80.54
2023-05-03T04:25:44.191Z,78.46
2023-05-03T04:26:44.229Z,80.45
2023-05-03T04:27:44.268Z,80.15
2023-05-03T04:28:44.300Z,77.84
2023-05-03T04:29:44.368Z,79.53
2023-05-03T04:30:44.483Z,81.15
2023-05-03T04:31:44.783Z,78.77
2023-05-03T04:32:44.464Z,80.54
2023-05-03T04:33:44.526Z,79.28
2023-05-03T04:34:44.946Z,79.69
2023-05-03T04:35:44.565Z,80.48
2023-05-03T04:36:44.784Z,78.62
2023-05-03T04:37:44.662Z,77.10
2023-05-03T04:38:44.687Z,78.26
2023-05-03T04:39:44.732Z,77.33
2023-05-03T04:40:44.779Z,78.73
2023-05-03T04:41:44.798Z,77.69
2023-05-03T04:42:44.840Z,77.98
2023-05-03T04:43:44.916Z,77.51
2023-05-03T04:44:44.928Z,78.90
2023-05-03T04:45:44.971Z,77.30
2023-05-03T04:46:45.006Z,79.21
2023-05-03T04:47:45.068Z,77.63
2023-05-03T04:48:45.082Z,79.08
2023-05-03T04:49:45.120Z,77.24
2023-05-03T04:50:45.197Z,78.79
2023-05-03T04:51:45.234Z,77.32
2023-05-03T04:52:45.267Z,76.52
2023-05-03T04:53:45.291Z,78.22
2023-05-03T04:54:45.348Z,78.02
2023-05-03T04:55:45.358Z,78.70
2023-05-03T04:56:45.407Z,77.38
2023-05-03T04:57:45.462Z,77.09
2023-05-03T04:58:45.489Z,77.74
2023-05-03T04:59:45.520Z,78.19
2023-05-03T05:00:45.556Z,74.91
2023-05-03T05:01:45.691Z,75.39
2023-05-03T05:02:45.745Z,77.10
2023-05-03T05:03:45.839Z,77.50
2023-05-03T05:04:45.801Z,94.01
2023-05-03T05:05:45.819Z,103.66
2023-05-03T05:06:46.356Z,104.65
2023-05-03T05:07:45.875Z,118.12
2023-05-03T05:08:45.912Z,102.37
2023-05-03T05:09:45.914Z,96.20
2023-05-03T05:10:45.949Z,91.80
2023-05-03T05:11:46.323Z,86.28
2023-05-03T05:12:45.959Z,83.41
2023-05-03T05:13:45.980Z,81.88
2023-05-03T05:14:46.004Z,78.09
2023-05-03T05:15:46.006Z,75.15
2023-05-03T05:16:46.173Z,75.72
2023-05-03T05:17:46.169Z,70.35
2023-05-03T05:18:46.019Z,68.66
2023-05-03T05:19:46.172Z,66.69
2023-05-03T05:20:46.174Z,63.86
2023-05-03T05:21:46.178Z,62.05
2023-05-03T05:22:46.198Z,60.12
2023-05-03T05:23:46.229Z,58.87
2023-05-03T05:24:46.237Z,55.81
2023-05-03T05:25:46.258Z,53.84
2023-05-03T05:26:46.324Z,54.14
2023-05-03T05:27:46.312Z,52.34
2023-05-03T05:28:46.306Z,49.25
2023-05-03T05:29:46.339Z,54.12
2023-05-03T05:30:46.343Z,51.72
2023-05-03T05:31:46.360Z,50.73
2023-05-03T05:32:46.497Z,50.86
2023-05-03T05:33:46.390Z,50.10
2023-05-03T05:34:46.410Z,47.58
2023-05-03T05:35:46.416Z,45.49
2023-05-03T05:36:46.817Z,44.01
2023-05-03T05:37:46.469Z,40.66
2023-05-03T05:38:46.517Z,41.99
2023-05-03T05:39:46.479Z,41.41
2023-05-03T05:40:46.535Z,39.00
2023-05-03T05:41:46.638Z,38.23
2023-05-03T05:42:46.601Z,41.03
2023-05-03T05:43:46.599Z,42.66
2023-05-03T05:44:46.625Z,43.82
2023-05-03T05:45:46.619Z,49.85
2023-05-03T05:46:46.681Z,48.13
2023-05-03T05:47:46.641Z,52.61
2023-05-03T05:48:46.678Z,40.43
2023-05-03T05:49:46.720Z,45.17
2023-05-03T05:50:46.687Z,50.48
2023-05-03T05:51:46.735Z,47.75
2023-05-03T05:52:46.787Z,54.33
2023-05-03T05:53:46.782Z,55.84
2023-05-03T05:54:46.784Z,58.50
2023-05-03T05:55:46.796Z,60.72
2023-05-03T05:56:46.822Z,62.15
2023-05-03T05:57:46.848Z,65.28
2023-05-03T05:58:46.859Z,68.70
2023-05-03T05:59:46.872Z,69.14
2023-05-03T06:00:46.895Z,72.38
2023-05-03T06:01:46.955Z,74.22
2023-05-03T06:02:47.138Z,74.40
2023-05-03T06:03:46.946Z,74.86
2023-05-03T06:04:47.022Z,76.40
2023-05-03T06:05:46.995Z,77.50
2023-05-03T06:06:47.112Z,76.46
2023-05-03T06:07:46.969Z,76.24
2023-05-03T06:08:46.986Z,75.46
2023-05-03T06:09:47.051Z,78.72
2023-05-03T06:10:47.047Z,80.40
2023-05-03T06:11:47.104Z,78.44
2023-05-03T06:12:47.076Z,80.79
2023-05-03T06:13:47.108Z,82.21
2023-05-03T06:15:47.157Z,79.83
2023-05-03T06:16:47.213Z,79.89
2023-05-03T06:17:47.302Z,85.17
2023-05-03T06:18:47.199Z,83.41
2023-05-03T06:19:47.256Z,83.58
2023-05-03T06:20:47.280Z,83.59
2023-05-03T06:21:47.392Z,83.85
2023-05-03T06:22:47.324Z,84.25
2023-05-03T06:23:47.380Z,82.85
2023-05-03T06:24:47.382Z,84.41
2023-05-03T06:25:47.425Z,86.22
2023-05-03T06:26:47.836Z,83.92
2023-05-03T06:27:47.466Z,83.76
2023-05-03T06:28:47.502Z,84.96
2023-05-03T06:29:47.516Z,85.45
2023-05-03T06:30:47.521Z,85.71
2023-05-03T06:31:47.540Z,87.15
2023-05-03T06:32:47.625Z,85.14
2023-05-03T06:33:47.601Z,87.68
2023-05-03T06:34:47.623Z,86.75
2023-05-03T06:35:47.659Z,85.84
2023-05-03T06:36:47.632Z,84.20
2023-05-03T06:37:47.661Z,86.65
2023-05-03T06:38:47.661Z,87.23
2023-05-03T06:39:47.710Z,87.01
2023-05-03T06:40:47.702Z,85.94
2023-05-03T06:41:47.743Z,86.44
2023-05-03T06:42:47.776Z,86.42
2023-05-03T06:43:47.747Z,88.59
2023-05-03T06:44:47.789Z,86.81
2023-05-03T06:45:47.760Z,86.23
2023-05-03T06:46:47.852Z,85.89
2023-05-03T06:47:47.871Z,90.01
2023-05-03T06:48:47.899Z,87.40
2023-05-03T06:49:47.861Z,87.54
2023-05-03T06:50:47.866Z,88.66
2023-05-03T06:51:47.909Z,89.46
2023-05-03T06:52:47.967Z,88.76
2023-05-03T06:53:47.971Z,87.91
2023-05-03T06:54:47.998Z,89.52
2023-05-03T06:55:48.020Z,96.59
2023-05-03T06:56:48.038Z,97.87
2023-05-03T06:57:48.096Z,99.51
2023-05-03T06:58:48.133Z,105.64
2023-05-03T06:59:48.165Z,114.06
2023-05-03T07:00:48.234Z,117.74
2023-05-03T07:01:48.315Z,116.78
2023-05-03T07:02:48.402Z,120.65
2023-05-03T07:03:48.377Z,128.94
2023-05-03T07:04:48.366Z,127.78
2023-05-03T07:05:48.423Z,130.04
2023-05-03T07:06:55.924Z,136.14
2023-05-03T07:07:49.429Z,136.47
2023-05-03T07:08:48.410Z,137.46
2023-05-03T07:09:48.431Z,139.88
2023-05-03T07:10:48.417Z,146.23
2023-05-03T07:11:48.420Z,153.91
2023-05-03T07:12:48.434Z,157.15
2023-05-03T07:13:48.388Z,159.79
2023-05-03T07:14:48.395Z,163.67
2023-05-03T07:15:48.401Z,167.79
2023-05-03T07:16:48.374Z,172.63
2023-05-03T07:17:48.409Z,176.79
2023-05-03T07:18:48.383Z,181.12
2023-05-03T07:19:48.348Z,186.56
2023-05-03T07:20:48.335Z,189.63
2023-05-03T07:21:48.297Z,193.01
2023-05-03T07:22:49.320Z,193.28
2023-05-03T07:23:48.312Z,194.38
2023-05-03T07:24:48.408Z,198.14
2023-05-03T07:25:48.313Z,202.79
2023-05-03T07:26:49.096Z,212.86
2023-05-03T07:27:48.290Z,216.67
2023-05-03T07:28:48.273Z,219.45
2023-05-03T07:29:48.283Z,224.55
2023-05-03T07:30:48.277Z,227.96
2023-05-03T07:31:48.276Z,232.84
2023-05-03T07:32:48.343Z,238.97
2023-05-03T07:33:48.364Z,240.39
2023-05-03T07:34:48.217Z,245.83
2023-05-03T07:35:48.330Z,250.00
2023-05-03T07:36:48.345Z,249.48
2023-05-03T07:37:48.411Z,250.00
2023-05-03T07:38:48.414Z,250.00
2023-05-03T07:39:48.490Z,248.99
2023-05-03T07:40:48.515Z,249.43
2023-05-03T07:41:48.565Z,249.58
2023-05-03T07:42:48.855Z,249.64
2023-05-03T07:43:48.660Z,249.41
2023-05-03T07:44:48.672Z,248.03
2023-05-03T07:45:48.748Z,249.39
2023-05-03T07:46:48.775Z,248.55
2023-05-03T07:47:48.887Z,183.55
2023-05-03T07:48:48.855Z,130.25
2023-05-03T07:49:48.868Z,110.23
2023-05-03T07:50:48.887Z,86.91
2023-05-03T07:51:48.954Z,80.81
2023-05-03T07:52:49.322Z,87.67
2023-05-03T07:53:49.019Z,97.92
2023-05-03T07:54:49.072Z,103.01
2023-05-03T07:55:49.181Z,96.16
2023-05-03T07:56:49.172Z,109.51
2023-05-03T07:57:49.351Z,119.90
2023-05-03T07:58:57.108Z,131.31
2023-05-03T07:59:50.280Z,131.75
2023-05-03T08:00:49.253Z,134.07
2023-05-03T08:01:49.269Z,139.25
2023-05-03T08:02:49.347Z,148.48
2023-05-03T08:03:49.311Z,158.71
2023-05-03T08:04:49.387Z,167.48
2023-05-03T08:05:49.301Z,172.25
2023-05-03T08:06:49.289Z,176.87
2023-05-03T08:07:49.220Z,182.18
2023-05-03T08:08:49.213Z,188.12
2023-05-03T08:09:49.259Z,191.76
2023-05-03T08:10:49.190Z,195.84
2023-05-03T08:11:56.157Z,200.14
2023-05-03T08:12:49.174Z,200.51
2023-05-03T08:13:49.172Z,201.38
2023-05-03T08:14:49.160Z,203.85
2023-05-03T08:15:49.203Z,208.77
2023-05-03T08:16:49.163Z,214.21
2023-05-03T08:17:49.430Z,217.64
2023-05-03T08:18:49.125Z,220.41
2023-05-03T08:19:49.156Z,223.01
2023-05-03T08:20:49.136Z,226.44
2023-05-03T08:21:49.144Z,230.37
2023-05-03T08:22:49.402Z,230.66
2023-05-03T08:23:49.152Z,229.61
2023-05-03T08:24:49.081Z,230.48
2023-05-03T08:25:49.103Z,231.32
2023-05-03T08:26:49.081Z,231.26
2023-05-03T08:27:49.382Z,233.88
2023-05-03T08:28:49.072Z,234.88
2023-05-03T08:29:49.043Z,236.29
2023-05-03T08:30:49.072Z,238.83
2023-05-03T08:31:49.297Z,238.87
2023-05-03T08:32:49.064Z,239.81
2023-05-03T08:33:49.052Z,241.97
2023-05-03T08:34:49.007Z,245.34
2023-05-03T08:35:49.443Z,247.57
2023-05-03T08:36:49.003Z,247.90
2023-05-03T08:37:49.393Z,248.62
2023-05-03T08:38:49.028Z,247.24
2023-05-03T08:39:48.983Z,239.44
2023-05-03T08:40:48.994Z,188.05
2023-05-03T08:41:48.962Z,177.46
2023-05-03T08:42:48.983Z,206.97
2023-05-03T08:43:48.986Z,210.61
2023-05-03T08:44:48.941Z,203.14
2023-05-03T08:45:49.063Z,206.47
2023-05-03T08:46:48.977Z,192.55
2023-05-03T08:47:49.382Z,187.81
2023-05-03T08:48:48.900Z,151.14
2023-05-03T08:49:49.930Z,113.92
2023-05-03T08:50:48.926Z,81.21
2023-05-03T08:51:48.914Z,81.41
2023-05-03T08:52:48.921Z,112.02
2023-05-03T08:53:48.871Z,129.45
2023-05-03T08:54:48.889Z,143.86
2023-05-03T08:55:48.898Z,142.27
2023-05-03T08:56:48.854Z,154.95
2023-05-03T08:57:48.881Z,118.77
2023-05-03T08:58:48.861Z,114.09
2023-05-03T08:59:48.874Z,123.00
2023-05-03T09:00:48.942Z,123.57
2023-05-03T09:01:49.179Z,101.67
2023-05-03T09:02:49.106Z,101.58
2023-05-03T09:03:49.792Z,133.91
2023-05-03T09:04:49.278Z,150.98
2023-05-03T09:05:49.130Z,160.03
2023-05-03T09:06:49.248Z,161.14
2023-05-03T09:07:49.229Z,163.95
2023-05-03T09:08:49.229Z,175.59
2023-05-03T09:09:49.298Z,177.92
2023-05-03T09:10:49.278Z,187.46
2023-05-03T09:11:49.310Z,193.01
2023-05-03T09:12:49.290Z,200.00
2023-05-03T09:13:49.368Z,205.98
2023-05-03T09:14:49.367Z,212.00
2023-05-03T09:15:49.361Z,219.00
2023-05-03T09:16:49.378Z,221.08
2023-05-03T09:17:49.995Z,226.10
2023-05-03T09:18:49.374Z,232.66
2023-05-03T09:19:49.417Z,234.53
2023-05-03T09:20:49.433Z,235.04
2023-05-03T09:21:49.463Z,239.22
2023-05-03T09:22:49.870Z,245.49
2023-05-03T09:23:49.473Z,250.00
2023-05-03T09:24:49.505Z,250.20
2023-05-03T09:25:49.527Z,250.00
2023-05-03T09:26:49.517Z,250.00
2023-05-03T09:27:49.933Z,249.16
2023-05-03T09:28:49.530Z,250.00
2023-05-03T09:29:49.578Z,249.10
2023-05-03T09:30:49.598Z,248.70
2023-05-03T09:31:49.667Z,249.67
2023-05-03T09:32:49.996Z,248.07
2023-05-03T09:33:49.700Z,248.97
2023-05-03T09:34:49.750Z,250.00
2023-05-03T09:35:49.787Z,248.51
2023-05-03T09:36:49.819Z,248.13
2023-05-03T09:37:49.917Z,249.09
2023-05-03T09:38:49.956Z,250.14
2023-05-03T09:39:50.056Z,248.63
2023-05-03T09:40:50.057Z,249.11
2023-05-03T09:41:50.139Z,248.98
2023-05-03T09:42:50.184Z,249.47
2023-05-03T09:43:50.227Z,249.47
2023-05-03T09:44:50.269Z,249.61
2023-05-03T09:45:50.368Z,250.00
2023-05-03T09:46:50.372Z,248.92
2023-05-03T09:47:50.427Z,248.82
2023-05-03T09:48:50.487Z,249.63
2023-05-03T09:49:50.595Z,248.58
2023-05-03T09:50:50.602Z,248.90
2023-05-03T09:51:50.619Z,248.04
2023-05-03T09:52:50.885Z,244.37
2023-05-03T09:53:50.720Z,245.48
2023-05-03T09:54:50.740Z,242.20
2023-05-03T09:55:50.796Z,240.17
2023-05-03T09:56:50.826Z,239.39
2023-05-03T09:57:50.904Z,238.13
2023-05-03T09:58:50.871Z,238.90
2023-05-03T09:59:50.857Z,236.91
2023-05-03T10:00:52.263Z,238.69
2023-05-03T10:01:50.951Z,237.33
2023-05-03T10:02:51.469Z,238.46
2023-05-03T10:03:50.954Z,236.88
2023-05-03T10:04:50.925Z,236.26
2023-05-03T10:05:50.982Z,237.44
2023-05-03T10:06:51.112Z,236.59
2023-05-03T10:07:50.985Z,236.31
2023-05-03T10:08:50.974Z,233.42
2023-05-03T10:09:51.013Z,230.28
2023-05-03T10:10:51.019Z,227.93
2023-05-03T10:11:51.041Z,228.91
2023-05-03T10:12:51.028Z,228.30
2023-05-03T10:13:51.075Z,224.53
2023-05-03T10:14:51.102Z,225.51
2023-05-03T10:15:51.169Z,224.68
2023-05-03T10:16:51.118Z,224.47
2023-05-03T10:17:51.169Z,226.83
2023-05-03T10:18:51.137Z,225.86
2023-05-03T10:19:51.143Z,226.14
2023-05-03T10:20:51.182Z,227.56
2023-05-03T10:21:51.268Z,226.59
2023-05-03T10:22:51.196Z,225.61
2023-05-03T10:23:51.261Z,225.15
2023-05-03T10:24:51.266Z,225.14
2023-05-03T10:25:51.255Z,223.33
2023-05-03T10:26:51.260Z,222.21
2023-05-03T10:27:51.322Z,223.39
2023-05-03T10:28:51.315Z,222.84
2023-05-03T10:29:51.354Z,221.40
2023-05-03T10:30:51.362Z,222.08
2023-05-03T10:31:51.589Z,219.96
2023-05-03T10:32:51.509Z,220.31
2023-05-03T10:33:51.428Z,217.71
2023-05-03T10:34:51.442Z,215.70
2023-05-03T10:35:51.475Z,215.31
2023-05-03T10:36:51.505Z,216.23
2023-05-03T10:37:51.936Z,215.52
2023-05-03T10:38:51.557Z,214.91
2023-05-03T10:39:52.350Z,213.93
2023-05-03T10:40:51.601Z,214.67
2023-05-03T10:41:51.648Z,212.88
2023-05-03T10:42:51.936Z,213.21
2023-05-03T10:43:51.702Z,212.72
2023-05-03T10:44:51.727Z,212.12
2023-05-03T10:45:51.815Z,210.37
2023-05-03T10:46:52.065Z,211.01
2023-05-03T10:47:51.882Z,212.79
2023-05-03T10:48:51.854Z,208.47
2023-05-03T10:49:51.904Z,210.89
2023-05-03T10:50:51.936Z,211.52
2023-05-03T10:51:51.949Z,208.62
2023-05-03T10:52:51.987Z,207.70
2023-05-03T10:53:52.020Z,207.05
2023-05-03T10:54:52.066Z,208.41
2023-05-03T10:55:52.079Z,207.93
2023-05-03T10:56:52.160Z,206.33
2023-05-03T10:57:52.153Z,207.07
2023-05-03T10:58:52.210Z,207.33
2023-05-03T10:59:52.223Z,207.22
2023-05-03T11:00:52.294Z,203.03
2023-05-03T11:01:52.371Z,204.06
2023-05-03T11:02:52.425Z,204.86
2023-05-03T11:03:52.417Z,203.37
2023-05-03T11:04:52.529Z,204.20
2023-05-03T11:05:52.484Z,205.14
2023-05-03T11:06:52.678Z,204.38
2023-05-03T11:07:52.577Z,202.01
2023-05-03T11:08:52.626Z,202.59
2023-05-03T11:09:52.670Z,200.27
2023-05-03T11:10:52.699Z,198.93
2023-05-03T11:11:52.768Z,197.95
2023-05-03T11:12:52.819Z,198.29
2023-05-03T11:13:52.878Z,197.50
2023-05-03T11:14:52.918Z,197.49
2023-05-03T11:15:52.929Z,197.60
2023-05-03T11:16:53.000Z,195.30
2023-05-03T11:17:53.131Z,195.72
2023-05-03T11:18:53.098Z,196.62
2023-05-03T11:19:53.162Z,196.53
2023-05-03T11:20:53.186Z,195.10
2023-05-03T11:21:53.221Z,193.74
2023-05-03T11:22:53.240Z,191.40
2023-05-03T11:23:53.436Z,191.03
2023-05-03T11:24:53.377Z,191.60
2023-05-03T11:25:53.494Z,191.56
2023-05-03T11:26:53.491Z,190.34
2023-05-03T11:27:53.524Z,192.57
2023-05-03T11:28:53.593Z,190.95
2023-05-03T11:29:53.649Z,191.38
2023-05-03T11:30:53.706Z,191.07
2023-05-03T11:31:53.771Z,190.35
2023-05-03T11:32:53.818Z,190.36
2023-05-03T11:33:53.909Z,191.47
2023-05-03T11:34:53.866Z,188.80
2023-05-03T11:35:53.953Z,184.07
2023-05-03T11:36:53.985Z,182.62
2023-05-03T11:37:54.035Z,181.29
2023-05-03T11:38:54.115Z,176.58
2023-05-03T11:39:54.155Z,175.74
2023-05-03T11:40:54.239Z,174.40
2023-05-03T11:41:54.261Z,169.58
2023-05-03T11:42:54.300Z,166.57
2023-05-03T11:44:04.021Z,166.91
2023-05-03T11:44:55.381Z,167.02
2023-05-03T11:45:54.399Z,166.24
2023-05-03T11:46:54.347Z,166.93
2023-05-03T11:47:54.345Z,167.26
2023-05-03T11:48:54.377Z,169.44
2023-05-03T11:49:54.381Z,168.46
2023-05-03T11:50:54.331Z,167.30
2023-05-03T11:51:55.140Z,169.24
2023-05-03T11:52:54.315Z,168.53
2023-05-03T11:53:54.344Z,168.68
2023-05-03T11:54:54.435Z,168.07
2023-05-03T11:55:54.481Z,168.50
2023-05-03T11:56:54.543Z,169.92
2023-05-03T11:57:54.594Z,167.13
2023-05-03T11:58:54.648Z,166.77
2023-05-03T11:59:55.354Z,165.19
2023-05-03T12:00:54.783Z,164.72
2023-05-03T12:01:54.882Z,162.48
2023-05-03T12:02:54.987Z,159.64
2023-05-03T12:04:40.566Z,25.00
2023-05-03T12:05:41.075Z,25.00
2023-05-03T12:06:42.457Z,25.00
2023-05-03T12:07:40.751Z,25.00
2023-05-03T12:08:43.354Z,25.00
2023-05-03T12:09:41.741Z,25.00
2023-05-03T12:10:41.276Z,25.00
2023-05-03T12:11:40.553Z,25.00
2023-05-03T12:12:43.501Z,25.00
2023-05-03T12:13:41.725Z,25.00
2023-05-03T12:14:41.867Z,25.00
2023-05-03T12:15:40.977Z,25.00
2023-05-03T12:16:40.580Z,25.00
2023-05-03T12:17:43.653Z,25.00
2023-05-03T12:18:40.858Z,25.17
2023-05-03T12:19:40.755Z,27.05
2023-05-03T12:21:41.983Z,28.83
2023-05-03T12:22:40.776Z,28.88
2023-05-03T12:23:40.629Z,0.00
2023-05-03T12:24:40.777Z,0.00
2023-05-03T12:25:44.083Z,0.00
2023-05-03T12:26:42.215Z,0.00
2023-05-03T12:27:40.825Z,0.00
2023-05-03T12:28:40.559Z,0.00
2023-05-03T12:29:41.938Z,0.00
2023-05-03T12:30:41.127Z,0.00
2023-05-03T12:31:43.114Z,0.00
2023-05-03T12:32:43.361Z,0.00
2023-05-03T12:33:43.316Z,0.00
2023-05-03T12:34:41.332Z,0.00
2023-05-03T12:35:41.353Z,0.00
2023-05-03T12:36:43.612Z,0.00
2023-05-03T12:37:43.331Z,0.18
2023-05-03T12:38:43.694Z,0.40
2023-05-03T12:39:40.870Z,0.75
2023-05-03T12:40:40.539Z,0.51
2023-05-03T12:42:06.501Z,1.84
2023-05-03T12:42:43.230Z,0.71
2023-05-03T12:43:43.490Z,3.46
2023-05-03T12:44:42.818Z,0.99
2023-05-03T12:45:41.346Z,1.19
2023-05-03T12:46:42.962Z,4.63